createdAt,value
2023-06-07T00:01:08.233Z,2.83
2023-06-07T00:04:12.940Z,2.40
2023-06-07T00:07:14.330Z,2.63
2023-06-07T00:10:15.717Z,2.88
2023-06-07T00:13:17.055Z,2.58
2023-06-07T00:16:18.017Z,3.17
2023-06-07T00:19:22.533Z,3.08
2023-06-07T00:22:23.846Z,3.10
2023-06-07T00:25:25.750Z,2.95
2023-06-07T00:28:28.732Z,2.40
2023-06-07T00:31:30.574Z,2.90
2023-06-07T00:34:32.293Z,3.35
2023-06-07T00:37:33.821Z,2.97
2023-06-07T00:40:35.894Z,3.22
2023-06-07T00:43:36.961Z,3.53
2023-06-07T00:46:37.848Z,3.10
2023-06-07T00:49:38.784Z,3.38
2023-06-07T00:52:41.596Z,2.85
2023-06-07T00:55:43.720Z,3.08
2023-06-07T00:58:47.325Z,3.78
2023-06-07T01:01:57.012Z,4.35
2023-06-07T01:04:59.343Z,3.83
2023-06-07T01:08:01.556Z,3.47
2023-06-07T01:11:03.735Z,3.60
2023-06-07T01:14:04.727Z,3.70
2023-06-07T01:17:06.538Z,3.58
2023-06-07T01:20:21.169Z,4.30
2023-06-07T01:23:36.273Z,3.25
2023-06-07T01:26:39.338Z,3.72
2023-06-07T01:29:41.017Z,3.92
2023-06-07T01:32:45.604Z,3.50
2023-06-07T01:35:49.949Z,3.17
2023-06-07T01:38:52.111Z,3.55
2023-06-07T01:41:53.912Z,3.55
2023-06-07T01:44:57.196Z,3.42
2023-06-07T01:47:58.639Z,3.78
2023-06-07T01:50:59.823Z,3.50
2023-06-07T01:54:03.070Z,3.42
2023-06-07T01:57:32.175Z,3.38
2023-06-07T02:00:47.040Z,3.40
2023-06-07T02:03:55.116Z,3.20
2023-06-07T02:07:07.942Z,3.45
2023-06-07T02:10:10.820Z,4.13
2023-06-07T02:13:14.290Z,3.45
2023-06-07T02:16:15.735Z,4.22
2023-06-07T02:19:18.235Z,4.03
2023-06-07T02:22:27.062Z,4.10
2023-06-07T02:25:29.042Z,4.22
2023-06-07T02:28:30.143Z,4.90
2023-06-07T02:31:31.334Z,3.97
2023-06-07T02:34:33.817Z,4.00
2023-06-07T02:37:37.116Z,4.82
2023-06-07T02:40:38.158Z,5.20
2023-06-07T02:43:39.457Z,4.55
2023-06-07T02:46:40.900Z,5.20
2023-06-07T02:49:42.502Z,4.53
2023-06-07T02:52:45.626Z,5.13
2023-06-07T02:55:47.861Z,5.47
2023-06-07T02:58:49.148Z,5.57
2023-06-07T03:01:50.505Z,5.70
2023-06-07T03:04:53.557Z,5.72
2023-06-07T03:07:58.358Z,6.32
2023-06-07T03:10:59.996Z,5.88
2023-06-07T03:14:05.436Z,5.63
2023-06-07T03:17:13.563Z,5.97
2023-06-07T03:20:16.002Z,5.65
2023-06-07T03:23:18.709Z,6.20
2023-06-07T03:26:23.977Z,6.88
2023-06-07T03:29:27.978Z,6.40
2023-06-07T03:32:29.491Z,5.55
2023-06-07T03:35:30.434Z,5.43
2023-06-07T03:38:32.483Z,5.55
2023-06-07T03:41:34.047Z,5.60
2023-06-07T03:44:39.296Z,6.68
2023-06-07T03:47:41.547Z,5.88
2023-06-07T03:50:42.706Z,6.00
2023-06-07T03:53:47.875Z,5.32
2023-06-07T03:56:49.523Z,6.22
2023-06-07T03:59:51.290Z,5.85
2023-06-07T04:02:54.634Z,5.50
2023-06-07T04:05:56.322Z,5.97
2023-06-07T04:09:01.398Z,5.68
2023-06-07T04:12:03.204Z,5.90
2023-06-07T04:15:05.043Z,6.28
2023-06-07T04:18:09.639Z,6.85
2023-06-07T04:21:11.921Z,6.50
2023-06-07T04:24:16.438Z,6.53
2023-06-07T04:27:19.676Z,7.18
2023-06-07T04:30:21.438Z,7.10
2023-06-07T04:33:23.925Z,7.43
2023-06-07T04:36:29.872Z,7.05
2023-06-07T04:42:38.778Z,6.60
2023-06-07T04:45:43.075Z,6.43
2023-06-07T04:48:46.366Z,6.28
2023-06-07T04:51:49.931Z,6.18
2023-06-07T04:54:51.654Z,5.95
2023-06-07T04:57:55.688Z,6.30
2023-06-07T05:00:58.119Z,7.50
2023-06-07T05:04:01.708Z,6.47
2023-06-07T05:07:08.694Z,6.60
2023-06-07T05:10:14.566Z,5.90
2023-06-07T05:13:16.087Z,6.00
2023-06-07T05:16:18.239Z,6.00
2023-06-07T05:19:21.365Z,6.13
2023-06-07T05:22:23.340Z,5.95
2023-06-07T05:25:25.254Z,6.47
2023-06-07T05:28:26.630Z,5.40
2023-06-07T05:31:30.710Z,5.82
2023-06-07T05:34:32.411Z,5.95
2023-06-07T05:37:34.671Z,5.43
2023-06-07T05:40:35.767Z,4.95
2023-06-07T05:43:37.549Z,5.43
2023-06-07T05:46:38.735Z,5.32
2023-06-07T05:49:40.180Z,5.25
2023-06-07T05:52:41.953Z,5.72
2023-06-07T05:55:43.691Z,5.32
2023-06-07T05:58:50.679Z,5.22
2023-06-07T06:01:51.990Z,5.25
2023-06-07T06:04:53.872Z,5.50
2023-06-07T06:07:57.185Z,5.45
2023-06-07T06:10:58.644Z,5.55
2023-06-07T06:14:00.003Z,5.93
2023-06-07T06:17:00.795Z,5.40
2023-06-07T06:20:02.782Z,5.28
2023-06-07T06:23:05.364Z,5.63
2023-06-07T06:26:06.535Z,5.93
2023-06-07T06:29:07.840Z,5.93
2023-06-07T06:32:09.451Z,5.50
2023-06-07T06:35:10.715Z,6.00
2023-06-07T06:38:13.054Z,4.85
2023-06-07T06:41:14.611Z,5.07
2023-06-07T06:44:15.811Z,5.70
2023-06-07T06:47:17.028Z,5.82
2023-06-07T06:50:32.298Z,5.57
2023-06-07T06:53:34.681Z,5.40
2023-06-07T06:56:37.342Z,6.18
2023-06-07T06:59:41.509Z,5.82
2023-06-07T07:02:42.932Z,5.72
2023-06-07T07:05:44.062Z,6.07
2023-06-07T07:08:46.032Z,6.22
2023-06-07T07:11:47.436Z,5.80
2023-06-07T07:14:48.538Z,6.07
2023-06-07T07:17:51.413Z,4.95
2023-06-07T07:20:52.709Z,5.82
2023-06-07T07:23:53.441Z,5.63
2023-06-07T07:26:54.826Z,5.55
2023-06-07T07:29:55.738Z,5.35
2023-06-07T07:33:00.069Z,5.50
2023-06-07T07:36:04.009Z,5.63
2023-06-07T07:39:06.012Z,5.22
2023-06-07T07:42:07.313Z,5.70
2023-06-07T07:45:09.879Z,5.82
2023-06-07T07:48:11.129Z,5.63
2023-06-07T07:51:12.365Z,5.38
2023-06-07T07:54:14.256Z,4.95
2023-06-07T07:57:16.073Z,5.32
2023-06-07T08:00:18.911Z,5.10
2023-06-07T08:03:20.400Z,5.30
2023-06-07T08:06:21.700Z,5.20
2023-06-07T08:09:22.612Z,5.72
2023-06-07T08:12:23.901Z,5.72
2023-06-07T08:15:24.876Z,4.78
2023-06-07T08:18:26.206Z,4.80
2023-06-07T08:21:27.552Z,5.05
2023-06-07T08:24:28.487Z,4.80
2023-06-07T08:27:29.285Z,4.40
2023-06-07T08:30:30.736Z,4.03
2023-06-07T08:33:31.733Z,3.83
2023-06-07T08:36:33.038Z,4.22
2023-06-07T08:39:34.039Z,3.95
2023-06-07T08:42:35.642Z,4.45
2023-06-07T08:45:38.432Z,3.78
2023-06-07T08:48:43.035Z,3.55
2023-06-07T08:51:44.857Z,3.40
2023-06-07T08:54:49.803Z,2.80
2023-06-07T08:57:53.908Z,3.00
2023-06-07T09:00:59.794Z,3.92
2023-06-07T09:04:01.271Z,3.00
2023-06-07T09:07:05.600Z,3.00
2023-06-07T09:10:08.571Z,3.28
2023-06-07T09:13:11.234Z,3.15
2023-06-07T09:16:13.834Z,3.63
2023-06-07T09:19:35.765Z,3.22
2023-06-07T09:22:37.116Z,2.70
2023-06-07T09:25:39.375Z,3.83
2023-06-07T09:28:40.495Z,3.20
2023-06-07T09:31:41.930Z,3.38
2023-06-07T09:34:42.922Z,3.40
2023-06-07T09:37:49.995Z,2.70
2023-06-07T09:40:52.618Z,2.95
2023-06-07T09:43:56.750Z,3.25
2023-06-07T09:47:04.021Z,3.03
2023-06-07T09:50:14.178Z,3.60
2023-06-07T09:53:15.517Z,3.25
2023-06-07T09:56:23.740Z,2.97
2023-06-07T09:59:24.866Z,2.60
2023-06-07T10:02:32.533Z,2.47
2023-06-07T10:05:33.921Z,3.30
2023-06-07T10:08:36.787Z,2.78
2023-06-07T10:11:39.628Z,3.10
2023-06-07T10:14:47.034Z,3.03
2023-06-07T10:18:20.206Z,2.80
2023-06-07T10:21:22.913Z,2.67
2023-06-07T10:24:33.739Z,2.63
2023-06-07T10:27:57.663Z,3.03
2023-06-07T10:31:07.212Z,3.05
2023-06-07T10:34:11.496Z,2.83
2023-06-07T10:37:16.049Z,2.65
2023-06-07T10:40:17.119Z,3.05
2023-06-07T10:43:19.465Z,3.20
2023-06-07T10:46:25.505Z,2.90
2023-06-07T10:49:44.735Z,3.28
2023-06-07T10:52:59.914Z,3.22
2023-06-07T10:56:29.305Z,3.08
2023-06-07T10:59:30.938Z,3.28
2023-06-07T11:02:32.525Z,3.42
2023-06-07T11:05:53.167Z,3.05
2023-06-07T11:09:21.126Z,3.22
2023-06-07T11:12:42.373Z,3.03
2023-06-07T11:15:43.850Z,3.40
2023-06-07T11:19:06.641Z,3.08
2023-06-07T11:22:08.316Z,3.15
2023-06-07T11:25:16.689Z,3.33
2023-06-07T11:28:26.432Z,2.85
2023-06-07T11:31:27.851Z,2.95
2023-06-07T11:34:32.631Z,3.08
2023-06-07T11:37:33.732Z,2.92
2023-06-07T11:40:35.261Z,3.53
2023-06-07T11:43:37.926Z,3.83
2023-06-07T11:46:40.309Z,2.90
2023-06-07T11:49:42.481Z,3.00
2023-06-07T11:52:43.939Z,2.85
2023-06-07T11:55:44.943Z,3.30
2023-06-07T11:58:46.422Z,2.97
2023-06-07T12:01:47.463Z,3.47
2023-06-07T12:04:49.415Z,2.88
2023-06-07T12:07:58.841Z,3.33
2023-06-07T12:11:01.891Z,2.67
2023-06-07T12:14:07.319Z,2.95
2023-06-07T12:17:10.900Z,3.50
2023-06-07T12:20:14.000Z,2.90
2023-06-07T12:23:21.657Z,3.03
2023-06-07T12:26:29.773Z,3.85
2023-06-07T12:29:33.528Z,3.00
2023-06-07T12:32:34.920Z,3.30
2023-06-07T12:35:39.542Z,3.10
2023-06-07T12:38:40.783Z,3.40
2023-06-07T12:41:42.040Z,3.05
2023-06-07T12:44:43.624Z,2.92
2023-06-07T12:47:45.693Z,2.97
2023-06-07T12:50:49.782Z,3.05
2023-06-07T12:53:51.192Z,3.20
2023-06-07T12:56:53.967Z,2.97
2023-06-07T12:59:55.012Z,3.05
2023-06-07T13:02:55.927Z,3.17
2023-06-07T13:05:57.068Z,3.63
2023-06-07T13:09:09.926Z,3.47
2023-06-07T13:12:11.901Z,2.97
2023-06-07T13:15:13.414Z,2.88
2023-06-07T13:18:14.686Z,3.50
2023-06-07T13:21:16.069Z,2.80
2023-06-07T13:24:17.056Z,3.10
2023-06-07T13:27:18.423Z,3.22
2023-06-07T13:30:19.940Z,3.25
2023-06-07T13:33:21.431Z,3.30
2023-06-07T13:36:22.443Z,3.60
2023-06-07T13:39:23.266Z,3.67
2023-06-07T13:42:25.514Z,3.70
2023-06-07T13:45:27.197Z,3.25
2023-06-07T13:48:31.280Z,3.10
2023-06-07T13:51:34.951Z,3.20
2023-06-07T13:54:36.903Z,3.30
2023-06-07T13:57:38.232Z,3.33
2023-06-07T14:00:39.803Z,3.75
2023-06-07T14:03:42.110Z,3.03
2023-06-07T14:06:44.140Z,3.88
2023-06-07T14:09:45.084Z,3.58
2023-06-07T14:12:46.358Z,3.75
2023-06-07T14:15:47.827Z,3.33
2023-06-07T14:18:49.541Z,3.58
2023-06-07T14:21:50.636Z,3.63
2023-06-07T14:24:51.921Z,3.08
2023-06-07T14:27:52.931Z,3.15
2023-06-07T14:30:54.375Z,3.40
2023-06-07T14:33:56.057Z,2.95
2023-06-07T14:36:56.944Z,3.40
2023-06-07T14:39:57.772Z,2.95
2023-06-07T14:42:59.105Z,3.17
2023-06-07T14:45:59.982Z,3.08
2023-06-07T14:49:01.561Z,3.13
2023-06-07T14:52:04.525Z,3.55
2023-06-07T14:55:06.951Z,3.13
2023-06-07T14:58:08.753Z,3.53
2023-06-07T15:01:10.030Z,2.85
2023-06-07T15:04:11.400Z,3.38
2023-06-07T15:07:12.600Z,3.22
2023-06-07T15:10:16.264Z,3.40
2023-06-07T15:13:19.428Z,3.00
2023-06-07T15:16:20.785Z,3.13
2023-06-07T15:19:21.747Z,3.15
2023-06-07T15:22:23.136Z,3.38
2023-06-07T15:25:24.976Z,3.15
2023-06-07T15:28:26.952Z,2.90
2023-06-07T15:31:28.059Z,3.20
2023-06-07T15:34:31.740Z,3.28
2023-06-07T15:37:33.049Z,3.25
2023-06-07T15:40:33.979Z,3.20
2023-06-07T15:43:35.399Z,3.53
2023-06-07T15:46:38.336Z,3.22
2023-06-07T15:49:40.408Z,3.88
2023-06-07T15:52:41.308Z,3.17
2023-06-07T15:55:42.381Z,3.13
2023-06-07T15:58:43.576Z,3.55
2023-06-07T16:01:44.917Z,3.60
2023-06-07T16:04:46.893Z,3.55
2023-06-07T16:07:48.218Z,3.45
2023-06-07T16:10:49.421Z,3.33
2023-06-07T16:13:50.348Z,3.65
2023-06-07T16:16:51.415Z,3.60
2023-06-07T16:19:52.905Z,3.17
2023-06-07T16:22:53.902Z,3.35
2023-06-07T16:25:55.386Z,3.70
2023-06-07T16:28:56.579Z,3.60
2023-06-07T16:31:58.205Z,3.75
2023-06-07T16:34:59.007Z,3.60
2023-06-07T16:38:00.338Z,3.70
2023-06-07T16:41:01.320Z,3.60
2023-06-07T16:44:02.583Z,3.40
2023-06-07T16:47:04.232Z,3.45
2023-06-07T16:50:06.664Z,3.72
2023-06-07T16:53:08.180Z,3.70
2023-06-07T16:56:09.308Z,4.00
2023-06-07T16:59:10.845Z,4.28
2023-06-07T17:02:12.765Z,3.92
2023-06-07T17:05:14.910Z,3.80
2023-06-07T17:08:16.113Z,3.80
2023-06-07T17:11:17.318Z,3.40
2023-06-07T17:14:20.427Z,3.42
2023-06-07T17:17:21.822Z,3.83
2023-06-07T17:20:23.218Z,3.35
2023-06-07T17:23:24.283Z,3.67
2023-06-07T17:26:26.736Z,3.58
2023-06-07T17:29:29.908Z,3.78
2023-06-07T17:32:31.556Z,3.95
2023-06-07T17:35:33.006Z,3.60
2023-06-07T17:38:35.021Z,3.22
2023-06-07T17:41:35.793Z,3.85
2023-06-07T17:44:36.788Z,3.70
2023-06-07T17:47:51.763Z,4.57
2023-06-07T17:50:53.184Z,3.70
2023-06-07T17:53:54.206Z,4.68
2023-06-07T17:56:55.090Z,3.70
2023-06-07T17:59:56.052Z,3.95
2023-06-07T18:02:57.091Z,4.28
2023-06-07T18:05:58.298Z,3.55
2023-06-07T18:08:59.542Z,4.15
2023-06-07T18:12:00.370Z,4.47
2023-06-07T18:15:01.375Z,4.28
2023-06-07T18:18:02.313Z,4.00
2023-06-07T18:21:03.698Z,4.25
2023-06-07T18:24:05.437Z,3.85
2023-06-07T18:27:09.178Z,4.00
2023-06-07T18:30:10.848Z,3.63
2023-06-07T18:33:11.850Z,3.22
2023-06-07T18:36:13.184Z,3.92
2023-06-07T18:39:14.213Z,4.07
2023-06-07T18:42:16.678Z,4.07
2023-06-07T18:45:18.302Z,4.15
2023-06-07T18:48:19.716Z,3.95
2023-06-07T18:51:21.013Z,3.65
2023-06-07T18:54:24.107Z,3.80
2023-06-07T18:57:25.034Z,3.53
2023-06-07T19:00:27.766Z,4.07
2023-06-07T19:03:29.003Z,3.33
2023-06-07T19:06:31.210Z,4.18
2023-06-07T19:09:32.709Z,3.55
2023-06-07T19:12:33.834Z,3.78
2023-06-07T19:15:34.695Z,4.10
2023-06-07T19:18:37.299Z,4.00
2023-06-07T19:21:38.348Z,3.92
2023-06-07T19:24:44.232Z,3.88
2023-06-07T19:27:46.104Z,3.70
2023-06-07T19:30:47.650Z,3.17
2023-06-07T19:33:48.857Z,3.60
2023-06-07T19:36:50.175Z,4.00
2023-06-07T19:39:51.122Z,3.80
2023-06-07T19:42:52.093Z,4.20
2023-06-07T19:45:56.068Z,3.90
2023-06-07T19:48:58.431Z,3.33
2023-06-07T19:51:59.458Z,4.22
2023-06-07T19:55:00.876Z,4.15
2023-06-07T19:58:02.311Z,4.18
2023-06-07T20:01:03.580Z,3.85
2023-06-07T20:04:04.820Z,4.10
2023-06-07T20:07:09.461Z,4.53
2023-06-07T20:10:11.184Z,4.20
2023-06-07T20:13:18.240Z,4.82
2023-06-07T20:16:19.638Z,4.28
2023-06-07T20:19:21.270Z,3.90
2023-06-07T20:22:25.389Z,4.15
2023-06-07T20:25:27.178Z,4.60
2023-06-07T20:28:28.981Z,4.78
2023-06-07T20:31:30.320Z,3.97
2023-06-07T20:34:34.124Z,3.83
2023-06-07T20:37:35.436Z,4.40
2023-06-07T20:40:36.816Z,4.22
2023-06-07T20:43:37.823Z,4.38
2023-06-07T20:46:38.604Z,4.50
2023-06-07T20:49:40.186Z,4.20
2023-06-07T20:52:41.132Z,4.40
2023-06-07T20:55:42.324Z,3.63
2023-06-07T20:58:43.845Z,3.80
2023-06-07T21:01:45.107Z,3.80
2023-06-07T21:04:46.170Z,4.32
2023-06-07T21:07:46.969Z,4.10
2023-06-07T21:10:48.035Z,3.58
2023-06-07T21:13:49.023Z,3.97
2023-06-07T21:16:50.017Z,4.10
2023-06-07T21:19:52.465Z,3.58
2023-06-07T21:22:53.512Z,4.30
2023-06-07T21:25:54.451Z,4.13
2023-06-07T21:28:56.598Z,4.50
2023-06-07T21:31:58.055Z,4.28
2023-06-07T21:34:59.378Z,4.38
2023-06-07T21:38:00.705Z,3.90
2023-06-07T21:41:02.044Z,4.28
2023-06-07T21:44:03.312Z,3.78
2023-06-07T21:47:05.134Z,3.90
2023-06-07T21:50:06.932Z,4.32
2023-06-07T21:53:08.172Z,3.83
2023-06-07T21:56:09.160Z,4.90
2023-06-07T21:59:10.330Z,4.20
2023-06-07T22:02:11.519Z,5.13
2023-06-07T22:05:12.988Z,4.28
2023-06-07T22:08:14.239Z,4.70
2023-06-07T22:11:15.422Z,4.57
2023-06-07T22:14:17.958Z,4.32
2023-06-07T22:17:20.995Z,4.13
2023-06-07T22:20:25.051Z,3.25
2023-06-07T22:23:26.399Z,4.43
2023-06-07T22:26:30.472Z,3.97
2023-06-07T22:29:34.208Z,4.20
2023-06-07T22:32:37.172Z,4.57
2023-06-07T22:35:41.169Z,5.10
2023-06-07T22:38:42.585Z,4.20
2023-06-07T22:41:43.500Z,4.80
2023-06-07T22:44:44.419Z,4.25
2023-06-07T22:47:47.803Z,4.15
2023-06-07T22:50:48.887Z,4.45
2023-06-07T22:53:51.377Z,3.75
2023-06-07T22:56:52.509Z,4.65
2023-06-07T22:59:53.681Z,4.13
2023-06-07T23:02:54.833Z,4.53
2023-06-07T23:05:56.133Z,4.43
2023-06-07T23:08:58.600Z,4.38
2023-06-07T23:12:01.527Z,4.47
2023-06-07T23:15:02.990Z,3.92
2023-06-07T23:18:04.278Z,4.47
2023-06-07T23:21:08.076Z,4.32
2023-06-07T23:24:10.086Z,4.50
2023-06-07T23:27:11.217Z,4.40
2023-06-07T23:30:12.897Z,4.72
2023-06-07T23:33:14.790Z,4.85
2023-06-07T23:36:17.286Z,4.55
2023-06-07T23:39:18.647Z,5.00
2023-06-07T23:42:19.540Z,4.35
2023-06-07T23:45:25.631Z,4.97
2023-06-07T23:48:28.789Z,4.93
2023-06-07T23:51:29.957Z,4.13
2023-06-07T23:54:31.552Z,5.20
2023-06-07T23:57:32.688Z,4.88
